createdAt,value
2018-11-06T00:01:53.533Z,995.69
2018-11-06T00:02:52.251Z,995.68
2018-11-06T00:03:50.774Z,995.73
2018-11-06T00:04:49.398Z,995.76
2018-11-06T00:05:48.240Z,995.76
2018-11-06T00:06:46.844Z,995.74
2018-11-06T00:07:45.354Z,995.8
2018-11-06T00:08:43.907Z,995.8
2018-11-06T00:09:42.519Z,995.76
2018-11-06T00:10:41.048Z,995.79
2018-11-06T00:11:40.114Z,995.79
2018-11-06T00:12:38.386Z,995.76
2018-11-06T00:13:36.959Z,995.77
2018-11-06T00:16:17.070Z,995.86
2018-11-06T00:17:15.704Z,995.82
2018-11-06T00:18:14.301Z,995.85
2018-11-06T00:19:12.904Z,995.83
2018-11-06T00:20:11.422Z,995.78
2018-11-06T00:21:09.985Z,995.78
2018-11-06T00:22:08.463Z,995.72
2018-11-06T00:23:07.110Z,995.68
2018-11-06T00:24:05.717Z,995.67
2018-11-06T00:25:04.361Z,995.66
2018-11-06T00:26:02.960Z,995.66
2018-11-06T00:27:01.546Z,995.63
2018-11-06T00:28:00.621Z,995.65
2018-11-06T00:28:58.737Z,995.58
2018-11-06T00:31:39.127Z,995.62
2018-11-06T00:32:37.625Z,995.58
2018-11-06T00:33:36.112Z,995.57
2018-11-06T00:34:34.806Z,995.53
2018-11-06T00:36:57.510Z,995.5
2018-11-06T00:37:56.089Z,995.48
2018-11-06T00:38:55.668Z,995.5
2018-11-06T00:39:54.332Z,995.53
2018-11-06T00:40:52.899Z,995.47
2018-11-06T00:41:51.428Z,995.53
2018-11-06T00:42:50.055Z,995.47
2018-11-06T00:43:48.538Z,995.51
2018-11-06T00:44:47.116Z,995.48
2018-11-06T00:45:45.683Z,995.47
2018-11-06T00:46:44.165Z,995.46
2018-11-06T00:53:03.835Z,995.54
2018-11-06T00:54:02.533Z,995.53
2018-11-06T00:55:01.173Z,995.56
2018-11-06T00:55:59.843Z,995.49
2018-11-06T00:56:58.469Z,995.53
2018-11-06T00:57:57.040Z,995.53
2018-11-06T00:58:55.595Z,995.53
2018-11-06T00:59:54.400Z,995.54
2018-11-06T01:00:53.045Z,995.54
2018-11-06T01:01:51.603Z,995.52
2018-11-06T01:02:50.207Z,995.59
2018-11-06T01:03:48.890Z,995.59
2018-11-06T01:04:47.511Z,995.62
2018-11-06T01:05:46.100Z,995.66
2018-11-06T01:06:44.713Z,995.64
2018-11-06T01:07:43.300Z,995.61
2018-11-06T01:08:41.829Z,995.58
2018-11-06T01:09:40.452Z,995.55
2018-11-06T01:10:39.035Z,995.54
2018-11-06T01:11:37.824Z,995.49
2018-11-06T01:12:36.863Z,995.53
2018-11-06T01:13:35.439Z,995.51
2018-11-06T01:16:15.475Z,995.48
2018-11-06T01:17:14.237Z,995.51
2018-11-06T01:18:12.875Z,995.49
2018-11-06T01:19:11.417Z,995.5
2018-11-06T01:20:09.984Z,995.49
2018-11-06T01:21:08.636Z,995.51
2018-11-06T01:22:07.140Z,995.52
2018-11-06T01:23:05.774Z,995.48
2018-11-06T01:24:04.367Z,995.52
2018-11-06T01:25:02.955Z,995.5
2018-11-06T01:26:01.520Z,995.55
2018-11-06T01:27:00.087Z,995.55
2018-11-06T01:27:58.661Z,995.56
2018-11-06T01:28:57.244Z,995.57
2018-11-06T01:29:55.969Z,995.57
2018-11-06T01:30:54.510Z,995.59
2018-11-06T01:31:53.065Z,995.65
2018-11-06T01:32:51.926Z,995.67
2018-11-06T01:44:19.193Z,995.66
2018-11-06T01:45:17.964Z,995.65
2018-11-06T01:46:16.501Z,995.6
2018-11-06T01:47:15.069Z,995.59
2018-11-06T01:48:13.631Z,995.57
2018-11-06T01:50:53.923Z,995.52
2018-11-06T01:51:52.881Z,995.52
2018-11-06T01:52:53.601Z,995.45
2018-11-06T01:55:33.942Z,995.49
2018-11-06T01:56:32.656Z,995.47
2018-11-06T01:57:31.191Z,995.43
2018-11-06T01:58:30.759Z,995.51
2018-11-06T01:59:29.294Z,995.47
2018-11-06T02:00:28.009Z,995.46
2018-11-06T02:02:35.806Z,995.51
2018-11-06T02:03:34.462Z,995.54
2018-11-06T02:04:33.038Z,995.52
2018-11-06T02:05:31.599Z,995.5
2018-11-06T02:06:30.222Z,995.53
2018-11-06T02:08:29.182Z,995.53
2018-11-06T02:09:27.788Z,995.47
2018-11-06T02:10:26.370Z,995.48
2018-11-06T02:11:24.978Z,995.48
2018-11-06T02:13:22.232Z,995.45
2018-11-06T02:14:20.757Z,995.43
2018-11-06T02:15:19.285Z,995.41
2018-11-06T02:16:17.903Z,995.42
2018-11-06T02:17:16.402Z,995.44
2018-11-06T02:18:14.973Z,995.42
2018-11-06T02:19:13.535Z,995.42
2018-11-06T02:20:12.101Z,995.43
2018-11-06T02:21:10.614Z,995.44
2018-11-06T02:22:09.153Z,995.47
2018-11-06T02:23:07.762Z,995.46
2018-11-06T02:24:06.500Z,995.44
2018-11-06T02:25:05.266Z,995.45
2018-11-06T02:26:04.066Z,995.39
2018-11-06T02:27:02.627Z,995.41
2018-11-06T02:28:01.238Z,995.38
2018-11-06T02:28:59.774Z,995.26
2018-11-06T02:29:58.347Z,995.28
2018-11-06T02:32:38.480Z,995.3
2018-11-06T02:33:36.984Z,995.3
2018-11-06T02:36:19.003Z,995.33
2018-11-06T02:37:17.627Z,995.34
2018-11-06T02:38:16.525Z,995.38
2018-11-06T02:39:15.109Z,995.32
2018-11-06T02:40:15.600Z,995.31
2018-11-06T02:42:38.581Z,995.22
2018-11-06T02:45:18.717Z,995.23
2018-11-06T02:46:17.237Z,995.24
2018-11-06T02:47:15.937Z,995.2
2018-11-06T02:48:14.477Z,995.15
2018-11-06T02:49:13.006Z,995.17
2018-11-06T02:50:11.665Z,995.12
2018-11-06T02:51:10.280Z,995.14
2018-11-06T02:52:08.839Z,995.18
2018-11-06T02:53:07.405Z,995.18
2018-11-06T02:54:06.122Z,995.22
2018-11-06T02:55:04.767Z,995.26
2018-11-06T02:56:03.434Z,995.35
2018-11-06T02:57:02.064Z,995.34
2018-11-06T02:58:00.579Z,995.44
2018-11-06T02:58:59.133Z,995.42
2018-11-06T02:59:57.662Z,995.48
2018-11-06T03:02:37.877Z,995.46
2018-11-06T03:03:36.457Z,995.5
2018-11-06T03:04:35.022Z,995.5
2018-11-06T03:05:33.682Z,995.51
2018-11-06T03:06:32.404Z,995.54
2018-11-06T03:07:30.975Z,995.56
2018-11-06T03:08:29.609Z,995.56
2018-11-06T03:09:28.189Z,995.61
2018-11-06T03:10:26.781Z,995.55
2018-11-06T03:11:25.250Z,995.52
2018-11-06T03:12:23.755Z,995.48
2018-11-06T03:13:22.322Z,995.44
2018-11-06T03:14:20.876Z,995.47
2018-11-06T03:15:19.449Z,995.49
2018-11-06T03:16:18.052Z,995.48
2018-11-06T03:17:16.708Z,995.5
2018-11-06T03:18:15.286Z,995.55
2018-11-06T03:19:13.942Z,995.53
2018-11-06T03:21:36.723Z,995.56
2018-11-06T03:22:35.258Z,995.49
2018-11-06T03:23:33.827Z,995.5
2018-11-06T03:24:32.527Z,995.52
2018-11-06T03:25:31.078Z,995.53
2018-11-06T03:26:30.596Z,995.54
2018-11-06T03:27:29.172Z,995.54
2018-11-06T03:28:27.888Z,995.54
2018-11-06T03:29:26.621Z,995.52
2018-11-06T03:32:07.024Z,995.5
2018-11-06T03:33:05.555Z,995.56
2018-11-06T03:38:26.291Z,995.63
2018-11-06T03:39:24.863Z,995.62
2018-11-06T03:40:23.356Z,995.57
2018-11-06T03:41:21.895Z,995.6
2018-11-06T03:42:20.449Z,995.54
2018-11-06T03:43:19.006Z,995.56
2018-11-06T03:44:17.574Z,995.62
2018-11-06T03:45:16.363Z,995.58
2018-11-06T03:46:14.879Z,995.57
2018-11-06T03:47:13.449Z,995.57
2018-11-06T03:48:12.125Z,995.65
2018-11-06T03:49:10.668Z,995.59
2018-11-06T03:50:09.148Z,995.62
2018-11-06T03:51:07.784Z,995.63
2018-11-06T03:52:06.351Z,995.6
2018-11-06T03:53:05.029Z,995.59
2018-11-06T03:54:03.640Z,995.63
2018-11-06T03:55:02.409Z,995.62
2018-11-06T03:56:00.901Z,995.56
2018-11-06T03:56:59.482Z,995.52
2018-11-06T03:57:58.217Z,995.55
2018-11-06T03:58:56.808Z,995.5
2018-11-06T03:59:55.397Z,995.59
2018-11-06T04:00:54.034Z,995.52
2018-11-06T04:01:52.571Z,995.58
2018-11-06T04:02:51.106Z,995.58
2018-11-06T04:03:49.715Z,995.51
2018-11-06T04:04:48.890Z,995.53
2018-11-06T04:05:47.507Z,995.55
2018-11-06T04:06:46.222Z,995.48
2018-11-06T04:07:44.879Z,995.46
2018-11-06T04:08:43.368Z,995.48
2018-11-06T04:09:42.221Z,995.41
2018-11-06T04:10:40.792Z,995.43
2018-11-06T04:11:39.298Z,995.5
2018-11-06T04:12:37.848Z,995.43
2018-11-06T04:13:36.625Z,995.41
2018-11-06T04:14:35.161Z,995.38
2018-11-06T04:15:33.793Z,995.44
2018-11-06T04:16:32.384Z,995.39
2018-11-06T04:17:30.955Z,995.31
2018-11-06T04:18:29.542Z,995.35
2018-11-06T04:19:28.395Z,995.33
2018-11-06T04:20:26.979Z,995.31
2018-11-06T04:21:25.527Z,995.26
2018-11-06T04:22:24.343Z,995.3
2018-11-06T04:23:22.884Z,995.34
2018-11-06T04:24:21.386Z,995.35
2018-11-06T04:25:20.024Z,995.38
2018-11-06T04:26:18.545Z,995.35
2018-11-06T04:27:17.105Z,995.32
2018-11-06T04:28:15.656Z,995.33
2018-11-06T04:29:14.566Z,995.41
2018-11-06T04:30:13.121Z,995.38
2018-11-06T04:31:11.679Z,995.39
2018-11-06T04:32:10.400Z,995.4
2018-11-06T04:33:08.908Z,995.37
2018-11-06T04:35:49.225Z,995.28
2018-11-06T04:36:47.852Z,995.31
2018-11-06T04:37:46.547Z,995.28
2018-11-06T04:38:45.099Z,995.31
2018-11-06T04:39:44.463Z,995.28
2018-11-06T04:40:43.074Z,995.27
2018-11-06T04:41:41.650Z,995.26
2018-11-06T04:42:40.242Z,995.21
2018-11-06T04:43:38.909Z,995.22
2018-11-06T04:44:37.650Z,995.15
2018-11-06T04:45:36.207Z,995.14
2018-11-06T04:46:34.707Z,995.03
2018-11-06T04:47:33.295Z,995
2018-11-06T04:50:13.629Z,994.97
2018-11-06T04:51:12.352Z,994.91
2018-11-06T04:52:10.983Z,994.94
2018-11-06T04:53:09.547Z,994.96
2018-11-06T04:54:08.242Z,994.92
2018-11-06T04:55:06.839Z,994.92
2018-11-06T04:56:05.399Z,994.94
2018-11-06T04:57:04.265Z,994.98
2018-11-06T04:58:13.416Z,994.91
2018-11-06T04:59:11.065Z,994.93
2018-11-06T05:00:09.651Z,994.9
2018-11-06T05:01:08.273Z,994.93
2018-11-06T05:02:06.902Z,994.94
2018-11-06T05:03:05.411Z,995
2018-11-06T05:04:04.097Z,994.94
2018-11-06T05:05:03.098Z,994.96
2018-11-06T05:06:01.698Z,994.97
2018-11-06T05:07:00.416Z,994.98
2018-11-06T05:09:51.871Z,995.01
2018-11-06T05:10:50.652Z,995
2018-11-06T05:11:49.241Z,995.04
2018-11-06T05:12:47.834Z,995.05
2018-11-06T05:13:46.409Z,995.08
2018-11-06T05:14:44.945Z,995.1
2018-11-06T05:15:43.454Z,995.07
2018-11-06T05:16:42.007Z,995.05
2018-11-06T05:17:40.546Z,995.05
2018-11-06T05:18:39.047Z,995.03
2018-11-06T05:19:37.649Z,995.07
2018-11-06T05:20:36.255Z,995.07
2018-11-06T05:21:34.736Z,995.02
2018-11-06T05:22:33.240Z,994.99
2018-11-06T05:23:31.810Z,995.03
2018-11-06T05:24:30.652Z,995.02
2018-11-06T05:25:29.215Z,994.94
2018-11-06T05:26:27.702Z,994.94
2018-11-06T05:27:26.540Z,994.94
2018-11-06T05:28:24.982Z,994.96
2018-11-06T05:29:23.602Z,994.99
2018-11-06T05:30:22.168Z,994.97
2018-11-06T05:31:20.709Z,994.97
2018-11-06T05:32:19.277Z,994.96
2018-11-06T05:33:17.821Z,994.96
2018-11-06T05:34:16.314Z,994.86
2018-11-06T05:35:14.812Z,994.91
2018-11-06T05:36:13.334Z,994.95
2018-11-06T05:37:11.880Z,994.95
2018-11-06T05:38:10.375Z,995.02
2018-11-06T05:39:09.125Z,994.94
2018-11-06T05:40:07.568Z,994.88
2018-11-06T05:41:06.479Z,994.93
2018-11-06T05:42:05.301Z,994.88
2018-11-06T05:43:03.849Z,994.86
2018-11-06T05:44:02.509Z,994.87
2018-11-06T05:45:00.982Z,994.89
2018-11-06T05:45:59.538Z,994.86
2018-11-06T05:46:58.113Z,994.82
2018-11-06T05:47:56.772Z,994.83
2018-11-06T05:48:55.307Z,994.77
2018-11-06T05:52:34.447Z,994.69
2018-11-06T05:53:33.108Z,994.67
2018-11-06T05:54:31.732Z,994.64
2018-11-06T05:55:30.467Z,994.67
2018-11-06T05:56:28.975Z,994.64
2018-11-06T05:59:09.284Z,994.56
2018-11-06T06:00:08.011Z,994.62
2018-11-06T06:01:06.656Z,994.51
2018-11-06T06:02:05.238Z,994.55
2018-11-06T06:03:04.125Z,994.48
2018-11-06T06:04:02.761Z,994.46
2018-11-06T06:05:01.361Z,994.51
2018-11-06T06:05:59.983Z,994.52
2018-11-06T06:06:58.587Z,994.49
2018-11-06T06:07:57.284Z,994.59
2018-11-06T06:08:55.754Z,994.52
2018-11-06T06:09:54.244Z,994.66
2018-11-06T06:10:52.871Z,994.59
2018-11-06T06:11:51.362Z,994.65
2018-11-06T06:12:50.225Z,994.63
2018-11-06T06:13:48.843Z,994.66
2018-11-06T06:17:27.456Z,994.97
2018-11-06T06:18:26.110Z,995.01
2018-11-06T06:19:24.702Z,995.06
2018-11-06T06:20:23.579Z,995.12
2018-11-06T06:21:22.828Z,995.12
2018-11-06T06:22:21.393Z,995.12
2018-11-06T06:23:20.092Z,995.15
2018-11-06T06:24:18.677Z,995.1
2018-11-06T06:25:17.257Z,995.12
2018-11-06T06:45:41.075Z,995.13
2018-11-06T06:46:39.615Z,995.18
2018-11-06T06:47:38.241Z,995.21
2018-11-06T06:48:36.861Z,995.27
2018-11-06T06:49:35.356Z,995.25
2018-11-06T06:50:33.866Z,995.3
2018-11-06T06:51:32.642Z,995.31
2018-11-06T06:52:31.203Z,995.3
2018-11-06T06:53:29.806Z,995.29
2018-11-06T06:54:28.597Z,995.28
2018-11-06T06:55:27.111Z,995.38
2018-11-06T06:56:25.748Z,995.32
2018-11-06T06:57:24.433Z,995.34
2018-11-06T06:58:22.954Z,995.31
2018-11-06T06:59:21.480Z,995.25
2018-11-06T07:00:20.558Z,995.31
2018-11-06T07:01:19.244Z,995.27
2018-11-06T07:02:17.822Z,995.27
2018-11-06T07:03:16.927Z,995.25
2018-11-06T07:04:15.477Z,995.25
2018-11-06T07:05:14.025Z,995.29
2018-11-06T07:06:12.596Z,995.32
2018-11-06T07:07:11.122Z,995.28
2018-11-06T07:08:09.636Z,995.35
2018-11-06T07:09:08.155Z,995.35
2018-11-06T07:10:06.669Z,995.31
2018-11-06T07:11:05.290Z,995.34
2018-11-06T07:12:03.778Z,995.32
2018-11-06T07:13:02.440Z,995.33
2018-11-06T07:14:00.816Z,995.31
2018-11-06T07:14:59.382Z,995.31
2018-11-06T07:15:58.218Z,995.29
2018-11-06T07:16:57.035Z,995.26
2018-11-06T07:17:55.700Z,995.21
2018-11-06T07:18:54.279Z,995.24
2018-11-06T07:19:52.806Z,995.21
2018-11-06T07:20:51.319Z,995.18
2018-11-06T07:21:49.937Z,995.15
2018-11-06T07:22:48.454Z,995.16
2018-11-06T07:23:47.932Z,995.12
2018-11-06T07:24:45.554Z,995.15
2018-11-06T07:25:44.363Z,995.15
2018-11-06T07:26:43.096Z,995.21
2018-11-06T07:27:41.804Z,995.23
2018-11-06T07:28:40.464Z,995.22
2018-11-06T07:29:38.915Z,995.27
2018-11-06T07:30:37.471Z,995.37
2018-11-06T07:31:36.038Z,995.39
2018-11-06T07:32:34.506Z,995.41
2018-11-06T07:33:33.072Z,995.44
2018-11-06T07:34:31.683Z,995.42
2018-11-06T07:35:30.263Z,995.41
2018-11-06T07:36:28.650Z,995.43
2018-11-06T07:37:27.182Z,995.4
2018-11-06T07:38:25.737Z,995.4
2018-11-06T07:39:24.851Z,995.37
2018-11-06T07:40:23.451Z,995.38
2018-11-06T07:41:22.060Z,995.35
2018-11-06T07:42:20.614Z,995.32
2018-11-06T07:43:19.229Z,995.31
2018-11-06T07:44:17.907Z,995.29
2018-11-06T07:45:16.682Z,995.25
2018-11-06T07:46:15.172Z,995.3
2018-11-06T07:47:13.907Z,995.28
2018-11-06T07:50:12.301Z,995.25
2018-11-06T07:51:10.903Z,995.25
2018-11-06T07:52:09.473Z,995.29
2018-11-06T07:53:08.231Z,995.24
2018-11-06T07:54:06.794Z,995.29
2018-11-06T07:55:05.328Z,995.23
2018-11-06T07:56:04.152Z,995.21
2018-11-06T07:57:02.731Z,995.24
2018-11-06T07:58:02.185Z,995.24
2018-11-06T07:59:00.751Z,995.21
2018-11-06T07:59:59.319Z,995.17
2018-11-06T08:00:57.826Z,995.21
2018-11-06T08:01:56.411Z,995.22
2018-11-06T08:02:55.011Z,995.21
2018-11-06T08:03:53.559Z,995.22
2018-11-06T08:04:52.159Z,995.24
2018-11-06T08:05:50.698Z,995.28
2018-11-06T08:06:49.205Z,995.24
2018-11-06T08:07:47.700Z,995.23
2018-11-06T08:08:46.224Z,995.22
2018-11-06T08:09:44.859Z,995.25
2018-11-06T08:10:43.342Z,995.26
2018-11-06T08:11:42.009Z,995.28
2018-11-06T08:12:40.623Z,995.33
2018-11-06T08:13:39.247Z,995.36
2018-11-06T08:14:38.194Z,995.35
2018-11-06T08:17:18.524Z,995.34
2018-11-06T08:18:17.104Z,995.33
2018-11-06T08:19:16.551Z,995.38
2018-11-06T08:20:15.135Z,995.37
2018-11-06T08:21:13.677Z,995.38
2018-11-06T08:22:12.218Z,995.38
2018-11-06T08:23:10.824Z,995.4
2018-11-06T08:24:09.368Z,995.41
2018-11-06T08:26:49.312Z,995.43
2018-11-06T08:46:37.990Z,995.21
2018-11-06T08:47:36.546Z,995.24
2018-11-06T08:48:35.282Z,995.22
2018-11-06T08:51:15.512Z,995.19
2018-11-06T08:52:14.430Z,995.2
2018-11-06T08:53:13.015Z,995.18
2018-11-06T08:54:11.608Z,995.15
2018-11-06T08:55:10.194Z,995.11
2018-11-06T08:56:08.781Z,995.11
2018-11-06T08:57:07.286Z,995.12
2018-11-06T08:58:05.792Z,995.11
2018-11-06T08:59:04.596Z,995.14
2018-11-06T09:00:03.163Z,995.07
2018-11-06T09:01:01.844Z,995.05
2018-11-06T09:02:00.590Z,995.08
2018-11-06T09:02:59.094Z,995.12
2018-11-06T09:03:57.583Z,995.13
2018-11-06T09:04:56.159Z,995.11
2018-11-06T09:05:54.697Z,995.13
2018-11-06T09:06:53.181Z,995.15
2018-11-06T09:07:51.798Z,995.19
2018-11-06T09:08:50.483Z,995.23
2018-11-06T09:09:48.888Z,995.21
2018-11-06T09:10:47.390Z,995.2
2018-11-06T09:11:45.929Z,995.18
2018-11-06T09:12:44.733Z,995.21
2018-11-06T09:13:49.243Z,995.17
2018-11-06T09:14:47.790Z,995.19
2018-11-06T09:15:46.479Z,995.2
2018-11-06T09:16:45.106Z,995.17
2018-11-06T09:17:43.614Z,995.15
2018-11-06T09:18:42.291Z,995.2
2018-11-06T09:19:40.787Z,995.15
2018-11-06T09:20:39.339Z,995.13
2018-11-06T09:21:37.899Z,995.1
2018-11-06T09:22:36.473Z,995.1
2018-11-06T09:23:35.051Z,995.07
2018-11-06T09:24:33.584Z,995.04
2018-11-06T09:25:32.319Z,995.03
2018-11-06T09:26:31.019Z,995.07
2018-11-06T09:27:29.510Z,995.04
2018-11-06T09:28:28.023Z,995.03
2018-11-06T09:29:26.620Z,995.04
2018-11-06T09:30:25.129Z,995.04
2018-11-06T09:31:24.074Z,995
2018-11-06T09:32:22.724Z,994.99
2018-11-06T09:33:21.237Z,994.98
2018-11-06T09:34:19.788Z,994.98
2018-11-06T09:35:18.452Z,994.98
2018-11-06T09:36:17.028Z,994.97
2018-11-06T09:37:15.571Z,994.94
2018-11-06T09:38:14.236Z,994.99
2018-11-06T09:39:12.958Z,994.99
2018-11-06T09:40:11.480Z,994.94
2018-11-06T09:41:10.113Z,994.9
2018-11-06T09:42:08.698Z,994.85
2018-11-06T09:43:07.196Z,994.82
2018-11-06T09:44:05.821Z,994.8
2018-11-06T09:45:04.386Z,994.75
2018-11-06T09:46:02.878Z,994.74
2018-11-06T09:47:01.401Z,994.68
2018-11-06T09:47:59.935Z,994.76
2018-11-06T09:48:58.657Z,994.69
2018-11-06T09:49:57.156Z,994.77
2018-11-06T09:50:55.725Z,994.75
2018-11-06T09:51:54.313Z,994.65
2018-11-06T09:52:52.831Z,994.71
2018-11-06T09:53:51.335Z,994.61
2018-11-06T09:54:49.824Z,994.59
2018-11-06T09:55:48.379Z,994.63
2018-11-06T09:56:47.048Z,994.61
2018-11-06T09:57:45.571Z,994.62
2018-11-06T09:58:44.158Z,994.61
2018-11-06T09:59:42.803Z,994.63
2018-11-06T10:00:41.308Z,994.64
2018-11-06T10:01:39.971Z,994.67
2018-11-06T10:02:38.547Z,994.67
2018-11-06T10:03:37.207Z,994.74
2018-11-06T10:04:35.750Z,994.77
2018-11-06T10:05:34.450Z,994.84
2018-11-06T10:06:33.299Z,994.87
2018-11-06T10:07:31.766Z,994.92
2018-11-06T10:08:30.454Z,994.92
2018-11-06T10:09:28.947Z,994.95
2018-11-06T10:10:27.463Z,994.94
2018-11-06T10:11:26.191Z,994.91
2018-11-06T10:12:24.659Z,994.9
2018-11-06T10:13:23.229Z,994.88
2018-11-06T10:14:21.755Z,994.89
2018-11-06T10:15:20.372Z,994.85
2018-11-06T10:16:18.870Z,994.82
2018-11-06T10:17:17.360Z,994.8
2018-11-06T10:18:15.920Z,994.79
2018-11-06T10:19:14.467Z,994.77
2018-11-06T10:20:13.015Z,994.81
2018-11-06T10:21:11.556Z,994.79
2018-11-06T10:22:10.074Z,994.76
2018-11-06T10:23:08.774Z,994.79
2018-11-06T10:24:07.365Z,994.79
2018-11-06T10:25:05.872Z,994.78
2018-11-06T10:26:04.808Z,994.75
2018-11-06T10:27:03.336Z,994.74
2018-11-06T10:28:01.944Z,994.76
2018-11-06T10:29:00.494Z,994.76
2018-11-06T10:29:58.993Z,994.77
2018-11-06T10:30:57.591Z,994.7
2018-11-06T10:31:56.100Z,994.61
2018-11-06T10:32:54.816Z,994.64
2018-11-06T10:33:53.419Z,994.64
2018-11-06T10:34:51.991Z,994.57
2018-11-06T10:35:50.608Z,994.56
2018-11-06T10:36:49.195Z,994.54
2018-11-06T10:37:47.668Z,994.5
2018-11-06T10:38:46.169Z,994.4
2018-11-06T10:41:26.553Z,994.38
2018-11-06T10:42:25.075Z,994.38
2018-11-06T10:43:23.621Z,994.38
2018-11-06T10:44:22.227Z,994.32
2018-11-06T10:45:20.995Z,994.36
2018-11-06T10:46:19.475Z,994.31
2018-11-06T10:47:18.163Z,994.34
2018-11-06T10:48:16.986Z,994.3
2018-11-06T10:50:57.248Z,994.37
2018-11-06T10:51:55.858Z,994.37
2018-11-06T10:52:54.412Z,994.46
2018-11-06T10:53:53.138Z,994.35
2018-11-06T10:54:51.662Z,994.39
2018-11-06T10:55:50.258Z,994.38
2018-11-06T10:56:48.887Z,994.43
2018-11-06T10:57:47.368Z,994.39
2018-11-06T10:58:45.884Z,994.35
2018-11-06T10:59:44.672Z,994.3
2018-11-06T11:00:43.223Z,994.27
2018-11-06T11:01:41.773Z,994.25
2018-11-06T11:02:40.347Z,994.26
2018-11-06T11:03:38.939Z,994.18
2018-11-06T11:04:37.515Z,994.16
2018-11-06T11:05:36.376Z,994.16
2018-11-06T11:06:35.066Z,994.2
2018-11-06T11:07:33.883Z,994.16
2018-11-06T11:08:32.390Z,994.11
2018-11-06T11:09:30.992Z,994.11
2018-11-06T11:10:29.548Z,994.11
2018-11-06T11:11:28.047Z,994.01
2018-11-06T11:12:26.632Z,994
2018-11-06T11:13:25.289Z,993.96
2018-11-06T11:14:23.879Z,993.91
2018-11-06T11:15:22.515Z,993.94
2018-11-06T11:16:21.098Z,993.93
2018-11-06T11:17:19.615Z,993.88
2018-11-06T11:18:18.164Z,993.9
2018-11-06T11:19:16.781Z,993.93
2018-11-06T11:20:15.439Z,993.9
2018-11-06T11:21:14.064Z,993.94
2018-11-06T11:22:12.647Z,993.95
2018-11-06T11:23:11.160Z,993.92
2018-11-06T11:24:09.775Z,993.94
2018-11-06T11:27:07.946Z,993.97
2018-11-06T11:29:41.805Z,994.05
2018-11-06T11:30:40.687Z,994
2018-11-06T11:31:39.212Z,994.03
2018-11-06T11:32:37.721Z,993.97
2018-11-06T11:33:37.295Z,993.95
2018-11-06T11:34:35.792Z,993.89
2018-11-06T11:35:34.371Z,993.89
2018-11-06T11:36:32.906Z,993.82
2018-11-06T11:37:31.387Z,993.87
2018-11-06T11:38:29.896Z,993.9
2018-11-06T11:39:28.426Z,993.89
2018-11-06T11:40:26.915Z,993.9
2018-11-06T11:41:25.544Z,993.85
2018-11-06T11:42:24.146Z,993.85
2018-11-06T11:43:22.839Z,993.88
2018-11-06T11:44:21.345Z,993.83
2018-11-06T11:45:19.909Z,993.86
2018-11-06T11:46:18.566Z,993.89
2018-11-06T11:47:17.202Z,993.9
2018-11-06T11:48:15.782Z,993.85
2018-11-06T11:49:14.301Z,993.86
2018-11-06T11:50:12.968Z,993.85
2018-11-06T11:51:11.558Z,993.84
2018-11-06T11:52:10.172Z,993.84
2018-11-06T11:53:08.763Z,993.82
2018-11-06T11:54:07.269Z,993.87
2018-11-06T11:55:05.799Z,993.84
2018-11-06T11:56:04.301Z,993.87
2018-11-06T11:57:02.818Z,993.83
2018-11-06T11:59:18.791Z,993.84
2018-11-06T12:00:17.382Z,993.82
2018-11-06T12:01:15.824Z,993.85
2018-11-06T12:02:14.942Z,993.89
2018-11-06T12:03:13.219Z,993.9
2018-11-06T12:04:11.786Z,993.93
2018-11-06T12:05:10.344Z,993.92
2018-11-06T12:06:08.877Z,993.85
2018-11-06T12:07:07.438Z,993.9
2018-11-06T12:08:06.031Z,993.82
2018-11-06T12:09:04.540Z,993.78
2018-11-06T12:10:03.060Z,993.75
2018-11-06T12:11:01.690Z,993.75
2018-11-06T12:12:00.270Z,993.75
2018-11-06T12:12:58.842Z,993.74
2018-11-06T12:13:57.415Z,993.78
2018-11-06T12:14:55.928Z,993.8
2018-11-06T12:15:54.513Z,993.78
2018-11-06T12:16:53.076Z,993.72
2018-11-06T12:17:51.656Z,993.73
2018-11-06T12:18:50.228Z,993.72
2018-11-06T12:19:49.012Z,993.72
2018-11-06T12:20:47.532Z,993.66
2018-11-06T12:21:46.120Z,993.66
2018-11-06T12:22:44.761Z,993.66
2018-11-06T12:23:43.297Z,993.66
2018-11-06T12:24:42.046Z,993.67
2018-11-06T12:27:21.968Z,993.63
2018-11-06T12:28:20.559Z,993.6
2018-11-06T12:29:19.073Z,993.62
2018-11-06T12:30:17.619Z,993.59
2018-11-06T12:31:16.162Z,993.54
2018-11-06T12:32:14.727Z,993.53
2018-11-06T12:33:13.260Z,993.57
2018-11-06T12:34:11.747Z,993.49
2018-11-06T12:35:10.400Z,993.51
2018-11-06T12:36:08.982Z,993.45
2018-11-06T12:37:07.590Z,993.47
2018-11-06T12:38:06.430Z,993.49
2018-11-06T12:39:05.003Z,993.44
2018-11-06T12:40:03.540Z,993.48
2018-11-06T12:41:02.244Z,993.51
2018-11-06T12:42:01.028Z,993.51
2018-11-06T12:42:59.593Z,993.47
2018-11-06T12:43:58.073Z,993.52
2018-11-06T12:44:57.066Z,993.52
2018-11-06T12:45:55.595Z,993.53
2018-11-06T12:46:54.201Z,993.47
2018-11-06T12:47:52.776Z,993.49
2018-11-06T12:48:51.302Z,993.42
2018-11-06T12:49:49.847Z,993.43
2018-11-06T12:50:48.551Z,993.43
2018-11-06T12:51:47.164Z,993.38
2018-11-06T12:52:45.697Z,993.36
2018-11-06T12:53:44.465Z,993.36
2018-11-06T12:54:42.996Z,993.4
2018-11-06T12:55:41.549Z,993.37
2018-11-06T12:56:40.141Z,993.35
2018-11-06T12:57:38.687Z,993.37
2018-11-06T12:58:37.178Z,993.33
2018-11-06T12:59:35.712Z,993.31
2018-11-06T13:00:34.235Z,993.26
2018-11-06T13:04:13.140Z,993.21
2018-11-06T13:05:12.248Z,993.19
2018-11-06T13:06:10.778Z,993.16
2018-11-06T13:07:09.347Z,993.12
2018-11-06T13:08:07.890Z,993.13
2018-11-06T13:10:48.304Z,993.17
2018-11-06T13:11:46.924Z,993.18
2018-11-06T13:12:45.442Z,993.14
2018-11-06T13:13:43.951Z,993.17
2018-11-06T13:16:06.621Z,993.17
2018-11-06T13:17:05.145Z,993.18
2018-11-06T13:18:03.653Z,993.19
2018-11-06T13:19:02.200Z,993.21
2018-11-06T13:20:00.750Z,993.19
2018-11-06T13:39:01.855Z,993.32
2018-11-06T13:40:00.359Z,993.35
2018-11-06T13:40:58.915Z,993.4
2018-11-06T13:41:57.467Z,993.38
2018-11-06T13:42:56.229Z,993.39
2018-11-06T13:43:54.628Z,993.38
2018-11-06T13:44:53.379Z,993.36
2018-11-06T13:45:51.615Z,993.39
2018-11-06T13:46:50.057Z,993.37
2018-11-06T13:47:48.629Z,993.39
2018-11-06T13:48:47.126Z,993.39
2018-11-06T13:49:45.645Z,993.39
2018-11-06T13:50:44.345Z,993.46
2018-11-06T13:51:42.992Z,993.55
2018-11-06T13:52:41.543Z,993.56
2018-11-06T13:53:40.223Z,993.57
2018-11-06T13:54:38.958Z,993.52
2018-11-06T13:55:37.470Z,993.53
2018-11-06T13:56:36.137Z,993.56
2018-11-06T13:57:34.688Z,993.56
2018-11-06T13:58:33.238Z,993.57
2018-11-06T13:59:31.895Z,993.56
2018-11-06T14:00:31.009Z,993.59
2018-11-06T14:01:29.540Z,993.62
2018-11-06T14:02:28.431Z,993.63
2018-11-06T14:03:26.928Z,993.71
2018-11-06T14:04:25.553Z,993.68
2018-11-06T14:05:24.526Z,993.71
2018-11-06T14:06:23.059Z,993.75
2018-11-06T14:07:21.789Z,993.78
2018-11-06T14:08:21.248Z,993.79
2018-11-06T14:09:20.262Z,993.79
2018-11-06T14:10:19.082Z,993.78
2018-11-06T14:11:17.808Z,993.79
2018-11-06T14:12:16.680Z,993.83
2018-11-06T14:13:15.006Z,993.82
2018-11-06T14:14:14.051Z,993.8
2018-11-06T14:15:13.006Z,993.84
2018-11-06T14:16:11.860Z,993.89
2018-11-06T14:17:10.582Z,993.88
2018-11-06T14:18:09.859Z,993.92
2018-11-06T14:19:08.665Z,993.91
2018-11-06T14:20:07.309Z,993.92
2018-11-06T14:21:06.019Z,993.91
2018-11-06T14:22:05.549Z,993.93
2018-11-06T14:23:05.885Z,993.98
2018-11-06T14:24:04.872Z,994.05
2018-11-06T14:25:03.346Z,994.09
2018-11-06T14:26:02.096Z,994.09
2018-11-06T14:27:00.670Z,994.05
2018-11-06T14:27:59.200Z,994.07
2018-11-06T14:28:57.816Z,994.14
2018-11-06T14:29:56.429Z,994.16
2018-11-06T14:30:55.005Z,994.21